Time;durP1;ratioP1;P1;durP2;ratioP2;P2;SDS_P1;SDS_P2;PMS_P1;PMS_P2;Temp;Humidity;BMP_temperature;BMP_pressure;BME280_temperature;BME280_humidity;BME280_pressure;Samples;Min_cycle;Max_cycle;Signal;HPM_P1;HPM_P2
2022/04/01 00:00:21;;;;;;;0.83;0.43;;;14.90;89.90;;;;;;4846352;29;20869;-60
2022/04/01 00:02:54;;;;;;;0.50;0.50;;;15.00;85.60;;;;;;4834474;29;20467;-60
2022/04/01 00:05:25;;;;;;;2.30;0.40;;;14.90;88.60;;;;;;4843533;29;20600;-60
2022/04/01 00:07:55;;;;;;;0.77;0.50;;;14.80;86.00;;;;;;4847597;29;20982;-60
2022/04/01 00:10:26;;;;;;;0.50;0.30;;;14.90;88.60;;;;;;4848531;29;20471;-60
2022/04/01 00:12:58;;;;;;;0.57;0.43;;;14.90;85.20;;;;;;4845722;29;20475;-60
2022/04/01 00:15:28;;;;;;;0.60;0.60;;;14.80;86.50;;;;;;4852182;29;20485;-60
2022/04/01 00:18:03;;;;;;;0.50;0.40;;;14.70;88.40;;;;;;4845488;29;20467;-60
2022/04/01 00:20:34;;;;;;;0.77;0.50;;;14.70;88.60;;;;;;4849815;29;20501;-60
2022/04/01 00:23:05;;;;;;;1.27;0.60;;;14.80;85.20;;;;;;4845556;29;20473;-60
2022/04/01 00:25:36;;;;;;;1.43;0.57;;;14.70;86.10;;;;;;4852511;29;20477;-60
2022/04/01 00:28:07;;;;;;;0.50;0.43;;;14.70;87.80;;;;;;4841483;29;20466;-60
2022/04/01 00:30:39;;;;;;;1.77;0.60;;;14.90;90.60;;;;;;4847698;29;20470;-60
2022/04/01 00:33:16;;;;;;;0.70;0.70;;;15.00;89.90;;;;;;4848094;29;20493;-60
2022/04/01 00:35:47;;;;;;;0.40;0.30;;;14.90;85.10;;;;;;4843402;29;20539;-60
2022/04/01 00:38:19;;;;;;;2.30;0.60;;;14.80;85.20;;;;;;4846931;29;20469;-59
2022/04/01 00:40:51;;;;;;;0.80;0.50;;;14.60;87.90;;;;;;4840239;29;20491;-60
2022/04/01 00:43:28;;;;;;;1.13;0.43;;;14.40;87.10;;;;;;4838172;29;20471;-59
2022/04/01 00:45:59;;;;;;;1.30;0.60;;;14.50;87.90;;;;;;4843860;29;20587;-59
2022/04/01 00:48:31;;;;;;;0.93;0.87;;;14.40;89.00;;;;;;4847524;29;20478;-60
2022/04/01 00:51:02;;;;;;;0.70;0.70;;;14.40;90.50;;;;;;4845983;29;20470;-62
2022/04/01 00:53:33;;;;;;;0.97;0.40;;;14.30;90.30;;;;;;4845273;29;20900;-60
2022/04/01 00:56:05;;;;;;;0.80;0.53;;;14.30;90.00;;;;;;4842781;29;20469;-58
2022/04/01 00:58:36;;;;;;;2.47;0.77;;;14.30;90.90;;;;;;4839059;29;20560;-60
2022/04/01 01:01:06;;;;;;;0.70;0.70;;;14.30;92.00;;;;;;4840836;29;20885;-60
2022/04/01 01:03:40;;;;;;;1.07;0.40;;;14.30;91.60;;;;;;4842024;29;20578;-60
2022/04/01 01:06:11;;;;;;;0.60;0.60;;;14.20;91.70;;;;;;4846394;29;20506;-59
2022/04/01 01:08:43;;;;;;;0.90;0.67;;;14.20;91.50;;;;;;4845981;29;20569;-59
2022/04/01 01:11:14;;;;;;;1.23;0.47;;;14.00;90.90;;;;;;4845168;29;20497;-60
2022/04/01 01:13:45;;;;;;;0.97;0.70;;;14.00;91.20;;;;;;4846848;29;20997;-65
2022/04/01 01:16:16;;;;;;;2.40;0.70;;;14.00;90.80;;;;;;4848131;29;20806;-65
2022/04/01 01:19:01;;;;;;;0.73;0.70;;;13.90;91.80;;;;;;4848866;29;20545;-61
2022/04/01 01:21:32;;;;;;;0.90;0.70;;;13.80;92.10;;;;;;4843102;29;20494;-62
2022/04/01 01:24:06;;;;;;;1.53;0.80;;;13.80;91.90;;;;;;4842433;29;20463;-62
2022/04/01 01:26:39;;;;;;;1.37;0.80;;;13.70;92.10;;;;;;4837671;29;20501;-60
2022/04/01 01:29:10;;;;;;;1.60;0.50;;;13.60;93.30;;;;;;4834858;29;20459;-64
2022/04/01 01:31:42;;;;;;;1.20;0.73;;;13.70;92.80;;;;;;4835823;29;20821;-67
2022/04/01 01:34:13;;;;;;;1.30;0.80;;;13.80;91.60;;;;;;4845035;29;20458;-67
2022/04/01 01:36:44;;;;;;;0.73;0.63;;;13.90;91.20;;;;;;4842995;29;20532;-67
2022/04/01 01:39:14;;;;;;;0.57;0.40;;;13.80;92.50;;;;;;4845160;29;20482;-63
2022/04/01 01:41:51;;;;;;;3.77;0.67;;;13.80;90.90;;;;;;4837868;29;20498;-63
2022/04/01 01:44:23;;;;;;;0.73;0.60;;;13.60;91.40;;;;;;4843680;29;20549;-61
2022/04/01 01:46:54;;;;;;;0.80;0.70;;;13.50;92.60;;;;;;4849245;29;20462;-60
2022/04/01 01:49:25;;;;;;;1.10;0.70;;;13.50;92.90;;;;;;4845333;29;20466;-60
2022/04/01 01:54:49;;;;;;;0.80;0.70;;;13.40;91.50;;;;;;4845246;29;20997;-58
2022/04/01 01:57:24;;;;;;;1.50;0.70;;;13.40;92.00;;;;;;4839308;29;20481;-58
2022/04/01 01:59:56;;;;;;;0.60;0.50;;;13.30;92.30;;;;;;4849333;29;20466;-56
2022/04/01 02:02:27;;;;;;;0.63;0.63;;;13.30;93.10;;;;;;4836534;29;20499;-58
2022/04/01 02:04:58;;;;;;;1.17;0.60;;;13.30;93.00;;;;;;4838577;29;20496;-57
2022/04/01 02:07:29;;;;;;;0.90;0.57;;;13.30;93.80;;;;;;4844780;29;20466;-59
2022/04/01 02:10:00;;;;;;;0.90;0.73;;;13.20;91.60;;;;;;4847299;29;20443;-61
2022/04/01 02:12:32;;;;;;;2.10;1.10;;;13.10;92.40;;;;;;4835226;29;20467;-60
2022/04/01 02:15:03;;;;;;;1.23;0.60;;;13.10;93.40;;;;;;4841396;29;20461;-59
2022/04/01 02:17:34;;;;;;;0.83;0.83;;;13.20;92.90;;;;;;4840047;29;20462;-60
2022/04/01 02:20:09;;;;;;;1.27;0.70;;;13.10;92.90;;;;;;4838700;29;20463;-60
2022/04/01 02:22:40;;;;;;;1.23;0.70;;;13.00;93.10;;;;;;4845944;29;20580;-60
2022/04/01 02:25:12;;;;;;;1.20;0.70;;;13.00;93.10;;;;;;4842923;29;20541;-60
2022/04/01 02:27:45;;;;;;;3.10;1.00;;;12.90;93.40;;;;;;4840900;29;20478;-59
2022/04/01 02:30:15;;;;;;;0.70;0.70;;;12.90;93.60;;;;;;4841409;29;20527;-58
2022/04/01 02:32:47;;;;;;;1.17;1.00;;;12.70;94.40;;;;;;4853092;29;20458;-59
2022/04/01 02:35:18;;;;;;;1.50;1.07;;;12.70;94.90;;;;;;4846259;29;20497;-58
2022/04/01 02:37:49;;;;;;;1.47;1.00;;;12.60;95.70;;;;;;4844510;29;20522;-58
2022/04/01 02:40:20;;;;;;;0.93;0.90;;;12.60;96.00;;;;;;4840448;29;20476;-59
2022/04/01 02:42:53;;;;;;;1.63;1.10;;;12.40;96.60;;;;;;4852344;29;20489;-59
2022/04/01 02:45:25;;;;;;;1.63;1.00;;;12.30;97.20;;;;;;4847809;29;20463;-59
2022/04/01 02:47:56;;;;;;;1.23;0.70;;;12.30;97.60;;;;;;4837442;29;20482;-59
2022/04/01 02:50:26;;;;;;;0.80;0.73;;;12.20;98.20;;;;;;4839904;29;20469;-59
2022/04/01 02:52:57;;;;;;;2.07;0.70;;;12.20;97.50;;;;;;4845046;29;20463;-60
2022/04/01 02:55:28;;;;;;;1.20;1.10;;;12.10;98.60;;;;;;4848657;29;20450;-59
2022/04/01 02:58:00;;;;;;;1.80;1.00;;;12.00;99.20;;;;;;4836693;29;20558;-60
2022/04/01 03:00:31;;;;;;;1.43;0.93;;;12.00;99.50;;;;;;4840621;29;20463;-62
2022/04/01 03:03:06;;;;;;;3.60;1.00;;;11.90;99.40;;;;;;4841428;29;20832;-61
2022/04/01 03:05:38;;;;;;;2.10;1.30;;;11.80;99.90;;;;;;4841833;29;20481;-61
2022/04/01 03:08:09;;;;;;;3.90;1.10;;;11.70;99.90;;;;;;4848048;29;20462;-60
2022/04/01 03:10:42;;;;;;;1.40;1.10;;;11.60;99.90;;;;;;4852847;29;20463;-62
2022/04/01 03:13:14;;;;;;;1.33;1.13;;;11.50;99.90;;;;;;4848221;29;20466;-59
2022/04/01 03:15:47;;;;;;;2.80;1.10;;;11.40;99.90;;;;;;4839451;29;20463;-58
2022/04/01 03:18:18;;;;;;;2.23;1.30;;;11.50;99.90;;;;;;4840140;29;20475;-60
2022/04/01 03:20:48;;;;;;;3.23;1.13;;;11.40;99.90;;;;;;4838913;29;20522;-60
2022/04/01 03:23:19;;;;;;;1.13;1.00;;;11.40;99.90;;;;;;4844002;29;20494;-60
2022/04/01 03:25:50;;;;;;;1.10;1.03;;;11.40;99.90;;;;;;4850097;29;20466;-61
2022/04/01 03:28:23;;;;;;;1.77;1.67;;;11.40;99.90;;;;;;4849660;29;20906;-62
2022/04/01 03:30:54;;;;;;;1.03;0.70;;;11.40;99.90;;;;;;4851992;29;20482;-62
2022/04/01 03:33:25;;;;;;;2.13;1.50;;;11.40;99.90;;;;;;4836091;29;20904;-62
2022/04/01 03:35:56;;;;;;;1.37;0.90;;;11.40;99.90;;;;;;4848621;29;20466;-61
2022/04/01 03:38:27;;;;;;;1.10;1.00;;;11.40;99.90;;;;;;4845703;29;20472;-60
2022/04/01 03:40:58;;;;;;;3.43;1.50;;;11.40;99.90;;;;;;4853997;29;20455;-61
2022/04/01 03:43:30;;;;;;;1.10;1.10;;;11.40;99.90;;;;;;4841426;29;20582;-61
2022/04/01 03:46:08;;;;;;;1.30;0.90;;;11.40;99.90;;;;;;4848001;29;20470;-61
2022/04/01 03:48:44;;;;;;;2.40;0.80;;;11.40;99.90;;;;;;4837958;29;20465;-60
2022/04/01 03:51:19;;;;;;;1.20;1.10;;;11.30;99.90;;;;;;4851084;29;20564;-61
2022/04/01 03:53:57;;;;;;;2.57;1.20;;;11.30;99.90;;;;;;4838782;29;20470;-61
2022/04/01 03:56:32;;;;;;;1.87;0.93;;;11.20;99.90;;;;;;4843768;29;20470;-61
2022/04/01 03:59:05;;;;;;;2.33;1.30;;;11.20;99.90;;;;;;4841412;29;20458;-60
2022/04/01 04:01:37;;;;;;;1.77;0.97;;;11.20;99.90;;;;;;4845331;29;20536;-60
2022/04/01 04:04:09;;;;;;;1.70;1.30;;;11.30;99.90;;;;;;4852877;29;20943;-60
2022/04/01 04:06:41;;;;;;;1.00;0.90;;;11.20;99.90;;;;;;4851526;29;20493;-60
2022/04/01 04:09:13;;;;;;;1.53;1.03;;;11.20;99.90;;;;;;4851149;29;20538;-59
2022/04/01 04:11:47;;;;;;;1.33;1.03;;;11.20;99.90;;;;;;4845521;29;20450;-60
2022/04/01 04:14:20;;;;;;;2.87;1.00;;;11.30;99.90;;;;;;4849815;29;20453;-60
2022/04/01 04:16:52;;;;;;;2.00;1.40;;;11.30;99.90;;;;;;4849099;29;20470;-60
2022/04/01 04:19:29;;;;;;;1.87;1.10;;;11.30;99.90;;;;;;4846897;29;20459;-60
2022/04/01 04:22:11;;;;;;;2.60;2.23;;;11.30;99.90;;;;;;4849680;29;20544;-60
2022/04/01 04:24:45;;;;;;;3.23;1.80;;;11.20;99.90;;;;;;4849526;29;20483;-62
2022/04/01 04:27:19;;;;;;;2.07;1.40;;;11.20;99.90;;;;;;4837085;29;20462;-62
2022/04/01 04:29:52;;;;;;;3.40;1.60;;;11.10;99.90;;;;;;4848065;29;20541;-60
2022/04/01 04:32:35;;;;;;;2.50;1.47;;;11.10;99.90;;;;;;4842284;29;20547;-60
2022/04/01 04:35:08;;;;;;;3.50;1.27;;;11.10;99.90;;;;;;4839548;29;20526;-60
2022/04/01 04:37:44;;;;;;;3.47;1.70;;;11.20;99.90;;;;;;4840838;29;20501;-60
2022/04/01 04:40:18;;;;;;;2.47;1.40;;;11.20;99.90;;;;;;4842560;29;20922;-60
2022/04/01 04:42:51;;;;;;;2.70;1.60;;;11.10;99.90;;;;;;4845173;29;20531;-60
2022/04/01 04:45:24;;;;;;;4.40;1.80;;;11.10;99.90;;;;;;4850864;29;20561;-60
2022/04/01 04:47:55;;;;;;;1.80;1.50;;;11.00;99.90;;;;;;4842753;29;20455;-61
2022/04/01 04:50:26;;;;;;;1.80;1.50;;;11.10;99.90;;;;;;4836735;29;20473;-60
2022/04/01 04:52:57;;;;;;;2.47;1.47;;;11.00;99.90;;;;;;4849318;29;20462;-60
2022/04/01 04:55:28;;;;;;;3.93;1.20;;;11.00;99.90;;;;;;4849984;29;20962;-60
2022/04/01 04:57:59;;;;;;;1.70;1.13;;;10.90;99.90;;;;;;4835604;29;21071;-60
2022/04/01 05:00:31;;;;;;;5.70;1.50;;;10.90;99.90;;;;;;4845178;29;20455;-61
2022/04/01 05:03:34;;;;;;;2.07;1.43;;;11.00;99.90;;;;;;4849462;29;20515;-60
2022/04/01 05:06:06;;;;;;;3.50;1.37;;;11.00;99.90;;;;;;4837126;29;20569;-60
2022/04/01 05:08:48;;;;;;;3.23;1.20;;;10.90;99.90;;;;;;4841842;29;20448;-60
2022/04/01 05:11:28;;;;;;;3.13;1.50;;;10.90;99.90;;;;;;4843137;29;20522;-60
2022/04/01 05:14:04;;;;;;;4.00;1.40;;;10.80;99.90;;;;;;4846656;29;20471;-60
2022/04/01 05:16:46;;;;;;;1.33;1.23;;;10.80;99.90;;;;;;4840269;29;20500;-59
2022/04/01 05:19:24;;;;;;;3.33;1.70;;;10.80;99.90;;;;;;4844519;29;20466;-60
2022/04/01 05:22:04;;;;;;;3.40;1.77;;;10.70;99.90;;;;;;4836695;29;20510;-60
2022/04/01 05:24:39;;;;;;;1.90;1.43;;;10.60;99.90;;;;;;4847381;29;20526;-61
2022/04/01 05:27:20;;;;;;;5.33;1.43;;;10.50;99.90;;;;;;4850722;29;20461;-61
2022/04/01 05:30:12;;;;;;;2.87;2.03;;;10.50;99.90;;;;;;4841688;29;21025;-60
2022/04/01 05:32:59;;;;;;;2.10;1.30;;;10.40;99.90;;;;;;4842434;29;20478;-60
2022/04/01 05:35:32;;;;;;;6.50;1.77;;;10.30;99.90;;;;;;4834071;29;20976;-60
2022/04/01 05:38:03;;;;;;;1.63;1.30;;;10.20;99.90;;;;;;4846713;29;20988;-61
2022/04/01 05:40:37;;;;;;;4.80;1.40;;;10.10;99.90;;;;;;4840744;29;20473;-61
2022/04/01 05:43:08;;;;;;;1.90;1.40;;;10.00;99.90;;;;;;4838970;29;20502;-61
2022/04/01 05:45:42;;;;;;;2.00;1.80;;;9.90;99.90;;;;;;4847896;29;20934;-60
2022/04/01 05:48:20;;;;;;;1.60;1.43;;;9.70;99.90;;;;;;4844176;29;20948;-60
2022/04/01 05:50:52;;;;;;;3.08;1.80;;;9.60;99.90;;;;;;4844708;29;20461;-60
2022/04/01 05:53:25;;;;;;;4.97;1.80;;;9.60;99.90;;;;;;4837391;29;20513;-60
2022/04/01 05:56:01;;;;;;;4.17;1.70;;;9.50;99.90;;;;;;4848231;29;20486;-60
2022/04/01 05:58:32;;;;;;;1.85;1.33;;;9.50;99.90;;;;;;4841953;29;20875;-61
2022/04/01 06:01:17;;;;;;;2.95;1.98;;;9.40;99.90;;;;;;4841001;29;20257;-61
2022/04/01 06:04:24;;;;;;;2.70;1.63;;;9.40;99.90;;;;;;4848534;29;20217;-61
2022/04/01 06:07:02;;;;;;;3.42;2.03;;;9.40;99.90;;;;;;4836389;29;20248;-61
2022/04/01 06:09:37;;;;;;;3.08;1.45;;;9.30;99.90;;;;;;4847896;29;20341;-60
2022/04/01 06:12:20;;;;;;;3.13;1.73;;;9.30;99.90;;;;;;4836591;29;20211;-60
2022/04/01 06:15:00;;;;;;;4.03;1.65;;;9.30;99.90;;;;;;4840874;29;20209;-60
2022/04/01 06:17:39;;;;;;;2.45;1.75;;;9.20;99.90;;;;;;4849220;29;20229;-60
2022/04/01 06:20:13;;;;;;;3.45;1.70;;;9.20;99.90;;;;;;4837077;29;20205;-61
2022/04/01 06:22:50;;;;;;;2.60;1.65;;;9.20;99.90;;;;;;4846585;29;20215;-60
2022/04/01 06:25:27;;;;;;;5.32;2.17;;;9.20;99.90;;;;;;4836715;29;20594;-60
2022/04/01 06:28:16;;;;;;;2.13;1.52;;;9.20;99.90;;;;;;4848121;29;20666;-61
2022/04/01 06:30:49;;;;;;;3.08;1.70;;;9.20;99.90;;;;;;4833354;29;20667;-61
2022/04/01 06:33:29;;;;;;;1.95;1.85;;;9.20;99.90;;;;;;4848778;29;20206;-61
2022/04/01 06:36:05;;;;;;;2.60;1.60;;;9.30;99.90;;;;;;4836134;29;20209;-60
2022/04/01 06:38:41;;;;;;;2.70;1.77;;;9.20;99.90;;;;;;4850091;29;20545;-61
2022/04/01 06:41:16;;;;;;;2.03;1.50;;;9.10;99.90;;;;;;4849108;29;20504;-61
2022/04/01 06:43:48;;;;;;;5.10;2.50;;;9.10;99.90;;;;;;4844941;29;21033;-61
2022/04/01 06:46:18;;;;;;;1.80;1.63;;;9.10;99.90;;;;;;4849995;29;20202;-60
2022/04/01 06:48:49;;;;;;;2.45;2.08;;;9.10;99.90;;;;;;4845729;29;20202;-61
2022/04/01 06:51:22;;;;;;;2.90;1.30;;;9.10;99.90;;;;;;4846588;29;20213;-61
2022/04/01 06:53:53;;;;;;;4.00;1.43;;;9.20;99.90;;;;;;4836232;29;20458;-61
2022/04/01 06:56:24;;;;;;;3.40;2.13;;;9.10;99.90;;;;;;4833584;29;20466;-60
2022/04/01 06:58:54;;;;;;;7.60;2.63;;;9.10;99.90;;;;;;4834054;29;20202;-60
2022/04/01 07:01:25;;;;;;;5.88;2.88;;;9.00;99.90;;;;;;4845679;29;20222;-60
2022/04/01 07:03:56;;;;;;;3.55;2.17;;;9.00;99.90;;;;;;4846769;29;20234;-60
2022/04/01 07:06:29;;;;;;;3.63;2.10;;;8.90;99.90;;;;;;4851586;29;20315;-59
2022/04/01 07:08:59;;;;;;;3.15;1.90;;;8.90;99.90;;;;;;4850915;29;20217;-59
2022/04/01 07:11:31;;;;;;;2.33;1.60;;;8.90;99.90;;;;;;4847564;29;20194;-59
2022/04/01 07:14:02;;;;;;;3.05;1.65;;;8.90;99.90;;;;;;4837191;29;20202;-59
2022/04/01 07:16:33;;;;;;;1.95;1.50;;;8.80;99.90;;;;;;4836604;29;20273;-58
2022/04/01 07:19:04;;;;;;;4.00;1.35;;;8.80;99.90;;;;;;4852073;29;20201;-59
2022/04/01 07:21:37;;;;;;;3.17;1.70;;;8.60;99.90;;;;;;4851295;29;20232;-59
2022/04/01 07:24:08;;;;;;;1.35;1.25;;;8.60;99.90;;;;;;4841547;29;20268;-59
2022/04/01 07:26:39;;;;;;;4.53;1.90;;;8.50;99.90;;;;;;4851995;29;20520;-59
2022/04/01 07:29:10;;;;;;;4.65;1.95;;;8.50;99.90;;;;;;4851888;29;20198;-59
2022/04/01 07:34:41;;;;;;;2.65;1.85;;;8.50;99.90;;;;;;4840497;29;20221;-59
2022/04/01 07:37:14;;;;;;;5.82;1.67;;;8.50;99.90;;;;;;4839896;29;20213;-59
2022/04/01 07:40:06;;;;;;;3.85;1.90;;;8.50;99.90;;;;;;4847143;29;20250;-59
2022/04/01 07:42:38;;;;;;;4.10;2.03;;;8.40;99.90;;;;;;4842463;29;20240;-59
2022/04/01 07:45:11;;;;;;;2.83;1.77;;;8.40;99.90;;;;;;4852396;29;20655;-59
2022/04/01 07:47:44;;;;;;;2.08;1.83;;;8.40;99.90;;;;;;4837871;29;20230;-59
2022/04/01 07:50:16;;;;;;;3.65;1.75;;;8.50;99.90;;;;;;4845607;29;20266;-59
2022/04/01 07:52:48;;;;;;;2.95;1.88;;;8.40;99.90;;;;;;4848396;29;20217;-59
2022/04/01 07:55:20;;;;;;;5.63;2.10;;;8.40;99.90;;;;;;4848571;29;20264;-59
2022/04/01 07:57:53;;;;;;;4.97;1.70;;;8.40;99.90;;;;;;4836023;29;20235;-59
2022/04/01 08:00:43;;;;;;;5.63;1.95;;;8.30;99.90;;;;;;4843870;29;20266;-59
2022/04/01 08:03:14;;;;;;;2.38;2.13;;;8.30;99.90;;;;;;4847080;29;20285;-59
2022/04/01 08:05:46;;;;;;;5.80;1.98;;;8.30;99.90;;;;;;4846200;29;20356;-59
2022/04/01 08:08:19;;;;;;;5.57;2.40;;;8.40;99.90;;;;;;4847102;29;20211;-59
2022/04/01 08:10:51;;;;;;;7.78;2.75;;;8.40;99.90;;;;;;4842349;29;20210;-59
2022/04/01 08:13:21;;;;;;;4.35;2.60;;;8.50;99.90;;;;;;4836837;29;20214;-59
2022/04/01 08:15:52;;;;;;;3.38;2.50;;;8.40;99.90;;;;;;4835924;29;20212;-59
2022/04/01 08:18:23;;;;;;;2.78;1.77;;;8.40;99.90;;;;;;4840794;29;20204;-59
2022/04/01 08:20:54;;;;;;;2.38;1.52;;;8.50;99.90;;;;;;4843737;29;20214;-59
2022/04/01 08:23:26;;;;;;;2.60;1.85;;;8.50;99.90;;;;;;4845408;29;20202;-59
2022/04/01 08:25:57;;;;;;;4.55;1.77;;;8.50;99.90;;;;;;4847248;29;20245;-60
2022/04/01 08:28:28;;;;;;;5.50;2.13;;;8.50;99.90;;;;;;4846721;29;20201;-59
2022/04/01 08:30:58;;;;;;;4.38;2.58;;;8.60;99.90;;;;;;4851561;29;20213;-59
2022/04/01 08:33:30;;;;;;;4.65;1.70;;;8.60;99.90;;;;;;4837622;29;20202;-60
2022/04/01 08:36:01;;;;;;;4.40;2.05;;;8.60;99.90;;;;;;4850739;29;20202;-59
2022/04/01 08:38:34;;;;;;;3.10;1.75;;;8.50;99.90;;;;;;4851559;29;20217;-59
2022/04/01 08:41:05;;;;;;;4.47;2.15;;;8.40;99.90;;;;;;4850256;29;20213;-59
2022/04/01 08:43:39;;;;;;;2.78;1.70;;;8.40;99.90;;;;;;4843834;29;20213;-59
2022/04/01 08:46:11;;;;;;;2.45;1.80;;;8.50;99.90;;;;;;4845131;29;20234;-59
2022/04/01 08:48:41;;;;;;;2.33;2.08;;;8.40;99.90;;;;;;4834534;29;20307;-60
2022/04/01 08:51:13;;;;;;;2.50;2.00;;;8.40;99.90;;;;;;4838975;29;20210;-59
2022/04/01 08:53:46;;;;;;;2.33;1.70;;;8.40;99.90;;;;;;4849695;29;20205;-59
2022/04/01 08:56:21;;;;;;;6.00;2.15;;;8.40;99.90;;;;;;4850670;29;20221;-59
2022/04/01 08:58:51;;;;;;;2.25;1.45;;;8.40;99.90;;;;;;4841913;29;20217;-60
2022/04/01 09:01:22;;;;;;;3.53;2.22;;;8.40;99.90;;;;;;4847330;29;20213;-59
2022/04/01 09:03:57;;;;;;;4.07;1.80;;;8.40;99.90;;;;;;4835903;29;20208;-60
2022/04/01 09:06:28;;;;;;;8.13;2.30;;;8.40;99.90;;;;;;4846056;29;20250;-59
2022/04/01 09:09:01;;;;;;;2.92;1.70;;;8.40;99.90;;;;;;4843022;29;20222;-59
2022/04/01 09:11:36;;;;;;;5.82;2.10;;;8.40;99.90;;;;;;4842959;29;20213;-59
2022/04/01 09:14:08;;;;;;;2.67;1.65;;;8.30;99.90;;;;;;4843841;29;20689;-59
2022/04/01 09:16:41;;;;;;;3.83;1.85;;;8.30;99.90;;;;;;4841761;29;20224;-59
2022/04/01 09:19:12;;;;;;;5.18;1.90;;;8.30;99.90;;;;;;4842952;29;20202;-58
2022/04/01 09:21:47;;;;;;;5.25;2.15;;;8.40;99.90;;;;;;4834906;29;20206;-58
2022/04/01 09:24:19;;;;;;;2.92;2.22;;;8.40;99.90;;;;;;4838056;29;20201;-59
2022/04/01 09:26:56;;;;;;;3.38;1.80;;;8.40;99.90;;;;;;4839454;29;20308;-59
2022/04/01 09:29:27;;;;;;;2.97;1.73;;;8.30;99.90;;;;;;4846843;29;20202;-58
2022/04/01 09:32:07;;;;;;;3.92;2.08;;;8.40;99.90;;;;;;4833292;29;20216;-59
2022/04/01 09:34:40;;;;;;;2.47;1.88;;;8.30;99.90;;;;;;4845987;29;20212;-59
2022/04/01 09:37:13;;;;;;;2.25;1.95;;;8.40;99.90;;;;;;4850994;29;20213;-59
2022/04/01 09:39:47;;;;;;;6.13;2.30;;;8.40;99.90;;;;;;4847634;29;20257;-59
2022/04/01 09:42:21;;;;;;;3.38;1.77;;;8.30;99.90;;;;;;4832301;29;20206;-58
2022/04/01 09:44:59;;;;;;;6.25;1.90;;;8.40;99.90;;;;;;4842905;29;20214;-59
2022/04/01 09:47:35;;;;;;;3.20;2.47;;;8.40;99.90;;;;;;4849408;29;20646;-59
2022/04/01 09:50:16;;;;;;;3.03;2.47;;;8.30;99.90;;;;;;4834481;29;20210;-59
2022/04/01 09:52:47;;;;;;;4.15;2.05;;;8.30;99.90;;;;;;4839974;29;20221;-59
2022/04/01 09:55:20;;;;;;;2.28;1.90;;;8.30;99.90;;;;;;4842497;29;20194;-59
2022/04/01 09:57:54;;;;;;;2.67;1.50;;;8.30;99.90;;;;;;4836367;29;20555;-58
2022/04/01 10:00:25;;;;;;;6.38;2.05;;;8.20;99.90;;;;;;4838937;29;20205;-59
2022/04/01 10:02:56;;;;;;;3.33;2.90;;;8.30;99.90;;;;;;4839522;29;20560;-59
2022/04/01 10:05:27;;;;;;;4.32;1.88;;;8.30;99.90;;;;;;4837303;29;20230;-58
2022/04/01 10:07:59;;;;;;;4.57;2.15;;;8.30;99.90;;;;;;4832833;29;20194;-58
2022/04/01 10:10:32;;;;;;;6.82;2.60;;;8.40;99.90;;;;;;4847386;29;20201;-58
2022/04/01 10:13:06;;;;;;;3.20;1.83;;;8.40;99.90;;;;;;4839072;29;20206;-58
2022/04/01 10:15:38;;;;;;;2.63;1.75;;;8.40;99.90;;;;;;4833551;29;20300;-59
2022/04/01 10:18:10;;;;;;;5.78;2.33;;;8.50;99.90;;;;;;4849972;29;20216;-58
2022/04/01 10:20:41;;;;;;;8.50;2.35;;;8.40;99.90;;;;;;4846224;29;20256;-58
2022/04/01 10:23:14;;;;;;;2.28;1.60;;;8.40;99.90;;;;;;4844679;29;20201;-58
2022/04/01 10:25:53;;;;;;;3.17;2.00;;;8.40;99.90;;;;;;4844803;29;20284;-58
2022/04/01 10:28:24;;;;;;;4.20;1.92;;;8.40;99.90;;;;;;4846594;29;20643;-59
2022/04/01 10:30:57;;;;;;;4.22;1.80;;;8.30;99.90;;;;;;4850446;29;20220;-58
2022/04/01 10:33:31;;;;;;;2.75;1.80;;;8.30;99.90;;;;;;4847429;29;20210;-58
2022/04/01 10:36:15;;;;;;;5.22;1.80;;;8.20;99.90;;;;;;4838649;29;20206;-58
2022/04/01 10:38:50;;;;;;;5.50;2.30;;;8.20;99.90;;;;;;4851721;29;20213;-61
2022/04/01 10:41:22;;;;;;;4.28;2.15;;;8.10;99.90;;;;;;4839720;29;20265;-60
2022/04/01 10:43:56;;;;;;;3.53;2.13;;;8.20;99.90;;;;;;4848810;29;20201;-60
2022/04/01 10:46:27;;;;;;;3.72;2.30;;;8.10;99.90;;;;;;4838130;29;20233;-60
2022/04/01 10:52:05;;;;;;;3.58;2.33;;;8.00;99.90;;;;;;4851746;29;20209;-58
2022/04/01 10:54:46;;;;;;;5.45;2.33;;;8.00;99.90;;;;;;4846916;29;20219;-58
2022/04/01 10:57:32;;;;;;;2.97;2.28;;;7.90;99.90;;;;;;4850942;29;20214;-58
2022/04/01 11:00:07;;;;;;;4.05;2.20;;;8.00;99.90;;;;;;4843387;29;20208;-58
2022/04/01 11:02:38;;;;;;;4.70;2.40;;;7.90;99.90;;;;;;4838228;29;20213;-59
2022/04/01 11:05:28;;;;;;;3.75;1.95;;;7.90;99.90;;;;;;4839727;29;20218;-59
2022/04/01 11:08:20;;;;;;;4.95;2.25;;;7.90;99.90;;;;;;4839815;29;20693;-59
2022/04/01 11:11:12;;;;;;;5.10;2.10;;;7.90;99.90;;;;;;4850083;29;20209;-59
2022/04/01 11:14:02;;;;;;;4.35;2.35;;;7.80;99.90;;;;;;4849512;29;20591;-59
2022/04/01 11:16:48;;;;;;;4.03;2.30;;;7.80;99.90;;;;;;4845352;29;20213;-59
2022/04/01 11:19:20;;;;;;;7.93;2.40;;;7.60;99.90;;;;;;4852180;29;20684;-59
2022/04/01 11:21:51;;;;;;;2.30;2.10;;;7.60;99.90;;;;;;4848553;29;20745;-59
2022/04/01 11:24:30;;;;;;;2.80;2.20;;;7.50;99.90;;;;;;4838486;29;20210;-59
2022/04/01 11:27:23;;;;;;;4.50;2.58;;;7.60;99.90;;;;;;4845321;29;20245;-59
2022/04/01 11:30:12;;;;;;;3.65;2.42;;;7.40;99.90;;;;;;4840134;29;20197;-59
2022/04/01 11:32:45;;;;;;;4.70;2.08;;;7.30;99.90;;;;;;4843150;29;20206;-59
2022/04/01 11:35:17;;;;;;;3.80;2.20;;;7.30;99.90;;;;;;4847912;29;20214;-59
2022/04/01 11:37:49;;;;;;;4.82;2.30;;;7.20;99.90;;;;;;4839819;29;20213;-59
2022/04/01 11:40:22;;;;;;;7.68;3.38;;;7.10;99.90;;;;;;4842870;29;20205;-59
2022/04/01 11:42:56;;;;;;;8.23;2.75;;;7.10;99.90;;;;;;4845257;29;20214;-59
2022/04/01 11:45:30;;;;;;;5.93;2.47;;;7.00;99.90;;;;;;4850735;29;20201;-59
2022/04/01 11:48:01;;;;;;;4.45;2.45;;;6.90;99.90;;;;;;4834200;29;20245;-58
2022/04/01 11:50:32;;;;;;;3.72;2.67;;;6.90;99.90;;;;;;4842768;29;20260;-58
2022/04/01 11:53:02;;;;;;;3.88;2.83;;;6.90;99.90;;;;;;4850249;29;20206;-58
2022/04/01 11:55:34;;;;;;;5.60;2.25;;;6.90;99.90;;;;;;4850653;29;21741;-58
2022/04/01 11:58:04;;;;;;;2.45;2.05;;;6.90;99.90;;;;;;4842840;29;20229;-59
2022/04/01 12:00:37;;;;;;;5.75;2.15;;;6.80;99.90;;;;;;4849097;29;20646;-59
2022/04/01 12:03:08;;;;;;;4.22;1.88;;;6.70;99.90;;;;;;4848211;29;20205;-58
2022/04/01 12:05:39;;;;;;;7.70;2.53;;;6.60;99.90;;;;;;4850809;29;20229;-59
2022/04/01 12:10:59;;;;;;;6.63;2.45;;;6.60;99.90;;;;;;4850741;29;20268;-58
2022/04/01 12:13:33;;;;;;;5.43;2.53;;;6.50;99.90;;;;;;4845981;29;20216;-58
2022/04/01 12:16:06;;;;;;;5.50;2.40;;;6.50;99.90;;;;;;4843927;29;20213;-58
2022/04/01 12:18:37;;;;;;;5.47;2.80;;;6.40;99.90;;;;;;4842336;29;20210;-59
2022/04/01 12:21:07;;;;;;;7.10;2.40;;;6.30;99.90;;;;;;4837489;29;20222;-58
2022/04/01 12:23:38;;;;;;;6.80;3.70;;;6.20;99.90;;;;;;4847013;29;20221;-59
2022/04/01 12:26:09;;;;;;;4.35;2.40;;;6.20;99.90;;;;;;4849695;29;20210;-59
2022/04/01 12:28:42;;;;;;;2.90;2.10;;;6.10;99.90;;;;;;4849695;29;20206;-59
2022/04/01 12:31:24;;;;;;;4.07;2.40;;;6.00;99.90;;;;;;4851612;29;20220;-59
2022/04/01 12:33:57;;;;;;;5.38;2.97;;;6.00;99.90;;;;;;4848873;29;20245;-59
2022/04/01 12:36:32;;;;;;;5.45;2.70;;;5.90;99.90;;;;;;4849551;29;20213;-59
2022/04/01 12:39:05;;;;;;;5.63;2.38;;;6.00;99.90;;;;;;4848943;29;20205;-59
2022/04/01 12:41:36;;;;;;;4.53;2.50;;;6.00;99.90;;;;;;4850215;29;20229;-59
2022/04/01 12:44:13;;;;;;;4.20;2.33;;;5.90;99.90;;;;;;4836484;29;20241;-59
2022/04/01 12:46:51;;;;;;;7.47;2.17;;;5.80;99.90;;;;;;4842698;29;20243;-59
2022/04/01 12:49:23;;;;;;;4.70;3.53;;;5.80;99.90;;;;;;4851217;29;20197;-59
2022/04/01 12:51:57;;;;;;;2.78;1.95;;;5.80;99.90;;;;;;4850723;29;20215;-59
2022/04/01 12:54:33;;;;;;;3.72;2.30;;;5.80;99.90;;;;;;4850881;29;20241;-58
2022/04/01 12:57:05;;;;;;;3.40;2.97;;;5.80;99.90;;;;;;4847736;29;20219;-58
2022/04/01 12:59:37;;;;;;;4.40;2.97;;;5.80;99.90;;;;;;4834904;29;20221;-58
2022/04/01 13:02:13;;;;;;;3.80;2.78;;;5.70;99.90;;;;;;4846855;29;20214;-58
2022/04/01 13:04:47;;;;;;;4.57;2.40;;;5.70;99.90;;;;;;4838328;29;20237;-58
2022/04/01 13:07:19;;;;;;;8.73;2.55;;;5.70;99.90;;;;;;4848598;29;20256;-58
2022/04/01 13:09:55;;;;;;;3.35;2.70;;;5.60;99.90;;;;;;4848359;29;20224;-58
2022/04/01 13:12:40;;;;;;;5.43;2.63;;;5.70;99.90;;;;;;4839284;29;20455;-58
2022/04/01 13:15:12;;;;;;;3.13;2.40;;;5.60;99.90;;;;;;4843954;29;20209;-59
2022/04/01 13:17:49;;;;;;;6.63;4.18;;;5.60;99.90;;;;;;4837381;29;20201;-59
2022/04/01 13:20:23;;;;;;;5.85;2.55;;;5.60;99.90;;;;;;4843585;29;20301;-59
2022/04/01 13:22:55;;;;;;;6.82;2.40;;;5.60;99.90;;;;;;4847156;29;20201;-58
2022/04/01 13:25:29;;;;;;;5.25;3.08;;;5.60;99.90;;;;;;4849398;29;20209;-59
2022/04/01 13:28:00;;;;;;;6.70;2.92;;;5.50;99.90;;;;;;4834065;29;20292;-59
2022/04/01 13:30:31;;;;;;;4.35;2.53;;;5.50;99.90;;;;;;4837287;29;20346;-59
2022/04/01 13:33:07;;;;;;;4.65;2.83;;;5.50;99.90;;;;;;4848035;29;20243;-58
2022/04/01 13:35:38;;;;;;;6.90;3.20;;;5.50;99.90;;;;;;4850439;29;20565;-59
2022/04/01 13:38:13;;;;;;;3.55;2.35;;;5.40;99.90;;;;;;4836828;29;20299;-59